createdAt,value
2023-01-19T00:00:21.723Z,2.30
2023-01-19T00:02:48.788Z,2.30
2023-01-19T00:05:15.761Z,2.40
2023-01-19T00:07:42.911Z,2.40
2023-01-19T00:10:10.592Z,2.40
2023-01-19T00:12:37.435Z,2.40
2023-01-19T00:15:04.861Z,2.40
2023-01-19T00:17:31.759Z,2.50
2023-01-19T00:19:58.620Z,2.50
2023-01-19T00:22:25.509Z,2.50
2023-01-19T00:24:52.391Z,2.50
2023-01-19T00:27:19.313Z,2.50
2023-01-19T00:29:46.172Z,2.50
2023-01-19T00:32:13.063Z,2.50
2023-01-19T00:34:42.669Z,2.40
2023-01-19T00:37:10.182Z,2.40
2023-01-19T00:39:37.051Z,2.40
2023-01-19T00:42:22.438Z,2.30
2023-01-19T00:44:49.263Z,2.30
2023-01-19T00:47:16.129Z,2.30
2023-01-19T00:49:42.932Z,2.30
2023-01-19T00:52:09.778Z,2.30
2023-01-19T00:54:36.661Z,2.30
2023-01-19T00:57:03.615Z,2.40
2023-01-19T00:59:30.427Z,2.40
2023-01-19T01:01:57.402Z,2.50
2023-01-19T01:04:24.407Z,2.50
2023-01-19T01:06:51.269Z,2.50
2023-01-19T01:09:18.139Z,2.50
2023-01-19T01:11:45.074Z,2.50
2023-01-19T01:14:12.736Z,2.40
2023-01-19T01:16:40.002Z,2.40
2023-01-19T01:19:07.260Z,2.40
2023-01-19T01:21:34.774Z,2.40
2023-01-19T01:24:02.128Z,2.30
2023-01-19T01:26:29.041Z,2.30
2023-01-19T01:28:55.896Z,2.40
2023-01-19T01:31:22.746Z,2.40
2023-01-19T01:33:49.598Z,2.40
2023-01-19T01:36:16.539Z,2.30
2023-01-19T01:38:43.369Z,2.20
2023-01-19T01:41:10.638Z,2.30
2023-01-19T01:43:52.984Z,2.30
2023-01-19T01:46:20.753Z,2.30
2023-01-19T01:49:11.273Z,2.20
2023-01-19T01:51:46.987Z,2.20
2023-01-19T01:54:25.969Z,2.10
2023-01-19T01:56:55.983Z,2.20
2023-01-19T01:59:34.871Z,2.30
2023-01-19T02:02:25.900Z,2.40
2023-01-19T02:04:55.183Z,2.30
2023-01-19T02:07:51.512Z,2.40
2023-01-19T02:10:36.879Z,2.30
2023-01-19T02:13:22.520Z,2.20
2023-01-19T02:15:52.665Z,2.20
2023-01-19T02:18:22.466Z,2.20
2023-01-19T02:20:59.960Z,2.10
2023-01-19T02:23:45.248Z,2.10
2023-01-19T02:26:42.984Z,2.20
2023-01-19T02:29:13.364Z,2.30
2023-01-19T02:31:41.144Z,2.30
2023-01-19T02:34:10.431Z,2.30
2023-01-19T02:36:49.485Z,2.20
2023-01-19T02:39:20.684Z,2.20
2023-01-19T02:41:52.690Z,2.10
2023-01-19T02:44:21.370Z,2.10
2023-01-19T02:46:48.452Z,2.20
2023-01-19T02:49:15.382Z,2.10
2023-01-19T02:51:44.279Z,2.10
2023-01-19T02:54:41.673Z,2.20
2023-01-19T02:57:25.858Z,2.20
2023-01-19T03:00:02.587Z,2.20
2023-01-19T03:02:48.274Z,2.10
2023-01-19T03:05:34.191Z,2.20
2023-01-19T03:08:19.737Z,2.20
2023-01-19T03:11:08.929Z,2.20
2023-01-19T03:13:47.685Z,2.00
2023-01-19T03:16:38.527Z,2.10
2023-01-19T03:19:28.452Z,2.00
2023-01-19T03:21:59.353Z,2.00
2023-01-19T03:24:31.512Z,2.10
2023-01-19T03:27:06.993Z,2.20
2023-01-19T03:29:36.990Z,2.30
2023-01-19T03:32:10.508Z,2.20
2023-01-19T03:34:39.413Z,2.00
2023-01-19T03:37:10.110Z,2.10
2023-01-19T03:39:37.426Z,2.10
2023-01-19T03:42:11.699Z,2.10
2023-01-19T03:44:40.386Z,2.10
2023-01-19T03:47:09.945Z,2.00
2023-01-19T03:49:38.441Z,1.90
2023-01-19T03:52:06.002Z,2.00
2023-01-19T03:54:32.916Z,2.10
2023-01-19T03:56:59.773Z,2.20
2023-01-19T03:59:26.916Z,2.20
2023-01-19T04:01:53.849Z,2.20
2023-01-19T04:04:20.730Z,2.20
2023-01-19T04:06:47.662Z,2.10
2023-01-19T04:09:14.490Z,2.20
2023-01-19T04:11:41.297Z,2.30
2023-01-19T04:14:08.175Z,2.30
2023-01-19T04:16:35.264Z,2.30
2023-01-19T04:19:02.169Z,2.30
2023-01-19T04:21:29.032Z,2.30
2023-01-19T04:23:55.834Z,2.40
2023-01-19T04:26:23.400Z,2.30
2023-01-19T04:28:50.269Z,2.40
2023-01-19T04:31:17.103Z,2.50
2023-01-19T04:33:43.907Z,2.50
2023-01-19T04:36:10.817Z,2.60
2023-01-19T04:38:37.732Z,2.50
2023-01-19T04:41:04.746Z,2.60
2023-01-19T04:43:31.675Z,2.60
2023-01-19T04:45:59.100Z,2.60
2023-01-19T04:48:25.937Z,2.70
2023-01-19T04:50:52.912Z,2.70
2023-01-19T04:53:19.915Z,2.70
2023-01-19T04:55:46.904Z,2.70
2023-01-19T04:58:14.048Z,2.60
2023-01-19T05:00:40.959Z,2.70
2023-01-19T05:03:07.812Z,2.60
2023-01-19T05:05:34.917Z,2.60
2023-01-19T05:08:01.755Z,2.70
2023-01-19T05:10:28.772Z,2.70
2023-01-19T05:12:55.990Z,2.70
2023-01-19T05:15:23.573Z,2.70
2023-01-19T05:17:50.636Z,2.70
2023-01-19T05:20:17.686Z,2.70
2023-01-19T05:22:50.631Z,2.70
2023-01-19T05:25:17.578Z,2.70
2023-01-19T05:27:44.952Z,2.70
2023-01-19T05:30:13.566Z,2.70
2023-01-19T05:32:40.827Z,2.70
2023-01-19T05:35:08.426Z,2.80
2023-01-19T05:37:35.252Z,2.80
2023-01-19T05:40:02.178Z,2.80
2023-01-19T05:42:30.783Z,2.80
2023-01-19T05:44:59.587Z,2.80
2023-01-19T05:47:26.728Z,2.90
2023-01-19T05:49:53.591Z,2.80
2023-01-19T05:52:20.438Z,2.80
2023-01-19T05:54:48.267Z,2.80
2023-01-19T05:57:15.231Z,2.80
2023-01-19T05:59:42.113Z,2.80
2023-01-19T06:02:09.093Z,2.90
2023-01-19T06:04:36.019Z,2.90
2023-01-19T06:07:03.010Z,2.90
2023-01-19T06:09:29.871Z,2.90
2023-01-19T06:11:57.824Z,2.90
2023-01-19T06:14:25.163Z,2.90
2023-01-19T06:16:52.608Z,2.90
2023-01-19T06:19:19.560Z,2.90
2023-01-19T06:21:52.201Z,3.00
2023-01-19T06:24:19.602Z,2.80
2023-01-19T06:26:46.556Z,2.90
2023-01-19T06:29:13.848Z,2.90
2023-01-19T06:31:41.171Z,2.90
2023-01-19T06:34:08.243Z,2.90
2023-01-19T06:36:35.113Z,2.90
2023-01-19T06:39:06.053Z,3.00
2023-01-19T06:41:34.133Z,3.00
2023-01-19T06:44:01.404Z,3.00
2023-01-19T06:46:28.489Z,2.90
2023-01-19T06:48:55.549Z,3.00
2023-01-19T06:51:23.158Z,2.90
2023-01-19T06:53:50.294Z,2.90
2023-01-19T06:56:17.119Z,2.80
2023-01-19T06:58:46.673Z,2.80
2023-01-19T07:01:13.948Z,2.70
2023-01-19T07:03:40.909Z,2.80
2023-01-19T07:06:07.931Z,2.80
2023-01-19T07:08:38.276Z,2.80
2023-01-19T07:11:25.729Z,2.80
2023-01-19T07:13:55.561Z,2.70
2023-01-19T07:16:23.217Z,2.70
2023-01-19T07:18:50.287Z,2.70
2023-01-19T07:21:17.405Z,2.70
2023-01-19T07:23:44.246Z,2.70
2023-01-19T07:26:11.285Z,2.60
2023-01-19T07:28:38.209Z,2.70
2023-01-19T07:31:05.721Z,2.70
2023-01-19T07:33:33.079Z,2.70
2023-01-19T07:35:59.932Z,2.70
2023-01-19T07:38:26.927Z,2.70
2023-01-19T07:41:06.808Z,2.70
2023-01-19T07:43:34.622Z,2.70
2023-01-19T07:46:03.537Z,2.80
2023-01-19T07:48:30.508Z,2.80
2023-01-19T07:51:05.869Z,2.70
2023-01-19T07:53:32.971Z,2.80
2023-01-19T07:55:59.877Z,2.80
2023-01-19T07:58:27.091Z,2.80
2023-01-19T08:00:54.063Z,2.70
2023-01-19T08:03:21.075Z,2.70
2023-01-19T08:05:53.007Z,2.70
2023-01-19T08:08:20.386Z,2.80
2023-01-19T08:10:51.571Z,2.80
2023-01-19T08:13:18.713Z,2.80
2023-01-19T08:15:45.765Z,2.70
2023-01-19T08:18:15.689Z,2.80
2023-01-19T08:20:42.676Z,2.80
2023-01-19T08:23:09.731Z,2.80
2023-01-19T08:25:45.244Z,2.90
2023-01-19T08:28:15.083Z,2.90
2023-01-19T08:30:44.515Z,2.80
2023-01-19T08:33:14.560Z,2.90
2023-01-19T08:35:42.923Z,2.80
2023-01-19T08:38:10.871Z,2.90
2023-01-19T08:40:39.677Z,2.90
2023-01-19T08:43:12.929Z,2.90
2023-01-19T08:45:46.625Z,3.00
2023-01-19T08:48:14.239Z,3.00
2023-01-19T08:50:41.215Z,3.00
2023-01-19T08:53:08.346Z,3.10
2023-01-19T08:55:36.562Z,3.00
2023-01-19T08:58:05.261Z,3.00
2023-01-19T09:00:37.959Z,3.00
2023-01-19T09:03:11.294Z,3.00
2023-01-19T09:05:39.144Z,2.90
2023-01-19T09:08:09.286Z,3.00
2023-01-19T09:10:37.988Z,3.00
2023-01-19T09:13:11.045Z,3.00
2023-01-19T09:15:39.505Z,3.00
2023-01-19T09:18:13.779Z,3.00
2023-01-19T09:20:42.799Z,3.00
2023-01-19T09:23:11.229Z,3.00
2023-01-19T09:25:39.291Z,3.10
2023-01-19T09:28:07.746Z,3.10
2023-01-19T09:30:37.201Z,3.20
2023-01-19T09:33:06.458Z,3.20
2023-01-19T09:35:34.755Z,3.10
2023-01-19T09:38:01.942Z,3.10
2023-01-19T09:40:29.800Z,3.10
2023-01-19T09:43:06.338Z,3.10
2023-01-19T09:45:46.148Z,3.20
2023-01-19T09:48:19.107Z,3.20
2023-01-19T09:50:48.432Z,3.20
2023-01-19T09:53:25.221Z,3.20
2023-01-19T09:55:52.471Z,3.30
2023-01-19T09:58:19.771Z,3.30
2023-01-19T10:00:56.248Z,3.40
2023-01-19T10:03:24.428Z,3.40
2023-01-19T10:06:03.806Z,3.40
2023-01-19T10:09:15.286Z,3.40
2023-01-19T10:11:55.547Z,3.40
2023-01-19T10:14:44.638Z,3.30
2023-01-19T10:17:23.099Z,3.40
2023-01-19T10:19:54.205Z,3.40
2023-01-19T10:22:24.096Z,3.40
2023-01-19T10:25:06.878Z,3.40
2023-01-19T10:27:37.701Z,3.40
2023-01-19T10:30:07.629Z,3.40
2023-01-19T10:32:38.834Z,3.30
2023-01-19T10:35:21.733Z,3.30
2023-01-19T10:37:49.502Z,3.30
2023-01-19T10:40:27.398Z,3.30
2023-01-19T10:42:54.627Z,3.40
2023-01-19T10:45:27.255Z,3.40
2023-01-19T10:47:57.754Z,3.40
2023-01-19T10:50:30.768Z,3.40
2023-01-19T10:53:02.063Z,3.30
2023-01-19T10:55:30.545Z,3.40
2023-01-19T10:57:58.776Z,3.30
2023-01-19T11:00:34.433Z,3.30
2023-01-19T11:03:01.988Z,3.30
2023-01-19T11:05:32.087Z,3.40
2023-01-19T11:07:59.077Z,3.40
2023-01-19T11:10:30.285Z,3.50
2023-01-19T11:13:12.947Z,3.50
2023-01-19T11:16:16.458Z,3.40
2023-01-19T11:18:44.325Z,3.40
2023-01-19T11:21:16.644Z,3.40
2023-01-19T11:23:53.190Z,3.40
2023-01-19T11:26:31.353Z,3.40
2023-01-19T11:29:00.734Z,3.40
2023-01-19T11:31:31.398Z,3.40
2023-01-19T11:34:22.838Z,3.40
2023-01-19T11:37:18.378Z,3.40
2023-01-19T11:39:53.851Z,3.40
2023-01-19T11:42:21.659Z,3.40
2023-01-19T11:45:00.326Z,3.50
2023-01-19T11:47:42.367Z,3.50
2023-01-19T11:50:36.467Z,3.50
2023-01-19T11:53:16.874Z,3.50
2023-01-19T11:56:04.852Z,3.60
2023-01-19T11:58:37.750Z,3.60
2023-01-19T12:01:14.484Z,3.60
2023-01-19T12:03:54.750Z,3.60
2023-01-19T12:06:44.824Z,3.60
2023-01-19T12:09:31.214Z,3.60
2023-01-19T12:12:04.133Z,3.60
2023-01-19T12:15:08.226Z,3.50
2023-01-19T12:17:58.536Z,3.50
2023-01-19T12:20:36.715Z,3.40
2023-01-19T12:23:24.503Z,3.50
2023-01-19T12:25:56.819Z,3.50
2023-01-19T12:28:31.760Z,3.50
2023-01-19T12:31:01.077Z,3.60
2023-01-19T12:33:37.771Z,3.60
2023-01-19T12:36:04.886Z,3.60
2023-01-19T12:38:40.880Z,3.50
2023-01-19T12:41:36.987Z,3.50
2023-01-19T12:44:14.012Z,3.50
2023-01-19T12:46:51.761Z,3.60
2023-01-19T12:49:39.213Z,3.60
2023-01-19T12:52:28.639Z,3.60
2023-01-19T12:55:13.332Z,3.60
2023-01-19T12:57:41.774Z,3.60
2023-01-19T13:00:30.427Z,3.60
2023-01-19T13:03:03.191Z,3.60
2023-01-19T13:05:38.869Z,3.60
2023-01-19T13:08:06.291Z,3.50
2023-01-19T13:11:05.140Z,3.50
2023-01-19T13:13:42.396Z,3.50
2023-01-19T13:16:29.816Z,3.50
2023-01-19T13:19:05.426Z,3.50
2023-01-19T13:21:34.715Z,3.60
2023-01-19T13:24:05.628Z,3.50
2023-01-19T13:26:41.541Z,3.50
2023-01-19T13:29:15.783Z,3.50
2023-01-19T13:31:52.774Z,3.40
2023-01-19T13:34:24.408Z,3.50
2023-01-19T13:36:52.037Z,3.40
2023-01-19T13:39:27.934Z,3.40
2023-01-19T13:41:59.310Z,3.40
2023-01-19T13:44:29.892Z,3.40
2023-01-19T13:46:59.386Z,3.40
2023-01-19T13:49:35.245Z,3.40
2023-01-19T13:52:12.827Z,3.30
2023-01-19T13:54:54.979Z,3.30
2023-01-19T13:57:26.039Z,3.20
2023-01-19T14:00:16.859Z,3.10
2023-01-19T14:03:17.847Z,3.00
2023-01-19T14:05:45.209Z,3.10
2023-01-19T14:08:13.481Z,3.10
2023-01-19T14:10:56.485Z,3.00
2023-01-19T14:13:30.938Z,3.00
2023-01-19T14:16:01.297Z,3.00
2023-01-19T14:18:30.249Z,3.00
2023-01-19T14:21:01.471Z,3.00
2023-01-19T14:23:49.401Z,3.00
2023-01-19T14:26:45.578Z,3.00
2023-01-19T14:29:32.873Z,2.90
2023-01-19T14:32:18.481Z,2.90
2023-01-19T14:35:04.278Z,2.90
2023-01-19T14:37:46.080Z,2.80
2023-01-19T14:40:15.655Z,2.80
2023-01-19T14:42:53.764Z,2.80
2023-01-19T14:45:22.370Z,2.80
2023-01-19T14:48:03.164Z,2.70
2023-01-19T14:50:36.845Z,2.80
2023-01-19T14:53:07.420Z,2.70
2023-01-19T14:55:44.466Z,2.70
2023-01-19T14:58:13.324Z,2.70
2023-01-19T15:00:41.158Z,2.70
2023-01-19T15:03:09.935Z,2.70
2023-01-19T15:05:42.161Z,2.70
2023-01-19T15:08:14.908Z,2.70
2023-01-19T15:10:41.859Z,2.70
2023-01-19T15:13:18.904Z,2.60
2023-01-19T15:15:45.839Z,2.60
2023-01-19T15:18:17.235Z,2.60
2023-01-19T15:20:44.055Z,2.50
2023-01-19T15:23:11.960Z,2.60
2023-01-19T15:25:39.632Z,2.60
2023-01-19T15:28:13.004Z,2.50
2023-01-19T15:30:40.103Z,2.50
2023-01-19T15:33:09.411Z,2.50
2023-01-19T15:35:36.249Z,2.40
2023-01-19T15:38:03.068Z,2.50
2023-01-19T15:40:31.567Z,2.50
2023-01-19T15:42:58.431Z,2.50
2023-01-19T15:45:31.433Z,2.50
2023-01-19T15:47:58.603Z,2.50
2023-01-19T15:50:26.163Z,2.50
2023-01-19T15:52:53.196Z,2.50
2023-01-19T15:55:20.125Z,2.40
2023-01-19T15:57:48.042Z,2.50
2023-01-19T16:00:15.818Z,2.50
2023-01-19T16:02:42.663Z,2.50
2023-01-19T16:05:10.188Z,2.50
2023-01-19T16:07:37.447Z,2.50
2023-01-19T16:10:06.410Z,2.50
2023-01-19T16:12:33.271Z,2.50
2023-01-19T16:15:00.086Z,2.50
2023-01-19T16:17:27.703Z,2.50
2023-01-19T16:19:54.625Z,2.50
2023-01-19T16:22:21.464Z,2.40
2023-01-19T16:24:48.294Z,2.50
2023-01-19T16:27:15.102Z,2.50
2023-01-19T16:29:41.937Z,2.50
2023-01-19T16:32:08.776Z,2.50
2023-01-19T16:34:35.630Z,2.50
2023-01-19T16:37:02.470Z,2.40
2023-01-19T16:39:29.331Z,2.40
2023-01-19T16:41:56.155Z,2.40
2023-01-19T16:44:23.132Z,2.30
2023-01-19T16:46:50.108Z,2.40
2023-01-19T16:49:23.025Z,2.30
2023-01-19T16:51:50.647Z,2.30
2023-01-19T16:54:23.255Z,2.30
2023-01-19T16:56:50.173Z,2.30
2023-01-19T16:59:17.707Z,2.20
2023-01-19T17:01:45.568Z,2.20
2023-01-19T17:04:13.313Z,2.20
2023-01-19T17:06:40.624Z,2.20
2023-01-19T17:09:09.472Z,2.10
2023-01-19T17:11:36.960Z,2.10
2023-01-19T17:14:10.217Z,2.10
2023-01-19T17:16:37.299Z,2.10
2023-01-19T17:19:07.054Z,2.00
2023-01-19T17:21:34.309Z,2.10
2023-01-19T17:24:01.992Z,2.10
2023-01-19T17:26:30.976Z,2.00
2023-01-19T17:29:02.174Z,2.10
2023-01-19T17:31:30.031Z,2.10
2023-01-19T17:33:57.044Z,2.10
2023-01-19T17:36:25.630Z,2.20
2023-01-19T17:38:53.946Z,2.20
2023-01-19T17:41:24.134Z,2.10
2023-01-19T17:43:52.161Z,2.10
2023-01-19T17:46:21.287Z,2.20
2023-01-19T17:49:07.899Z,2.20
2023-01-19T17:51:35.169Z,2.10
2023-01-19T17:54:02.077Z,2.10
2023-01-19T17:56:33.101Z,2.10
2023-01-19T17:58:59.902Z,2.10
2023-01-19T18:01:29.366Z,2.10
2023-01-19T18:03:57.162Z,2.00
2023-01-19T18:06:24.081Z,2.00
2023-01-19T18:08:52.501Z,2.10
2023-01-19T18:11:20.795Z,2.10
2023-01-19T18:13:49.615Z,2.00
2023-01-19T18:16:20.224Z,2.00
2023-01-19T18:18:49.424Z,2.00
2023-01-19T18:21:17.224Z,2.10
2023-01-19T18:23:45.204Z,2.10
2023-01-19T18:26:17.899Z,2.00
2023-01-19T18:28:45.220Z,2.00
2023-01-19T18:31:15.374Z,2.00
2023-01-19T18:33:42.605Z,2.00
2023-01-19T18:36:09.959Z,2.00
2023-01-19T18:38:38.038Z,2.00
2023-01-19T18:41:08.199Z,2.00
2023-01-19T18:43:35.338Z,2.00
2023-01-19T18:46:02.354Z,2.00
2023-01-19T18:48:29.564Z,2.00
2023-01-19T18:50:56.741Z,2.00
2023-01-19T18:53:24.424Z,2.00
2023-01-19T18:55:57.228Z,2.00
2023-01-19T18:58:24.782Z,2.10
2023-01-19T19:00:51.727Z,2.10
2023-01-19T19:03:18.596Z,2.10
2023-01-19T19:05:45.490Z,2.10
2023-01-19T19:08:12.521Z,2.10
2023-01-19T19:10:41.778Z,2.00
2023-01-19T19:13:11.191Z,2.10
2023-01-19T19:15:38.164Z,2.00
2023-01-19T19:18:05.084Z,2.00
2023-01-19T19:20:31.909Z,2.00
2023-01-19T19:22:58.764Z,2.00
2023-01-19T19:25:25.566Z,2.10
2023-01-19T19:27:53.000Z,2.00
2023-01-19T19:30:20.923Z,2.00
2023-01-19T19:32:56.112Z,1.90
2023-01-19T19:35:26.310Z,1.90
2023-01-19T19:37:57.460Z,2.00
2023-01-19T19:40:28.632Z,1.90
2023-01-19T19:42:58.464Z,2.00
2023-01-19T19:45:25.683Z,2.00
2023-01-19T19:47:52.523Z,1.90
2023-01-19T19:50:19.477Z,2.00
2023-01-19T19:52:46.390Z,1.80
2023-01-19T19:55:13.282Z,1.90
2023-01-19T19:57:40.531Z,1.80
2023-01-19T20:00:08.594Z,2.00
2023-01-19T20:02:35.533Z,2.00
2023-01-19T20:05:02.478Z,2.00
2023-01-19T20:07:29.443Z,2.00
2023-01-19T20:09:56.309Z,2.00
2023-01-19T20:12:23.232Z,2.00
2023-01-19T20:14:50.104Z,2.00
2023-01-19T20:17:17.092Z,2.00
2023-01-19T20:19:45.640Z,1.90
2023-01-19T20:22:12.810Z,1.90
2023-01-19T20:24:39.646Z,1.90
2023-01-19T20:27:06.504Z,1.90
2023-01-19T20:29:33.400Z,1.80
2023-01-19T20:32:00.323Z,1.80
2023-01-19T20:34:33.059Z,1.80
2023-01-19T20:37:01.783Z,1.80
2023-01-19T20:39:30.315Z,1.80
2023-01-19T20:41:57.414Z,1.90
2023-01-19T20:44:26.407Z,1.90
2023-01-19T20:46:54.054Z,1.90
2023-01-19T20:49:21.449Z,2.00
2023-01-19T20:51:48.725Z,1.80
2023-01-19T20:54:18.337Z,1.80
2023-01-19T20:56:45.351Z,1.90
2023-01-19T20:59:13.167Z,1.70
2023-01-19T21:01:41.095Z,1.80
2023-01-19T21:04:08.723Z,1.80
2023-01-19T21:06:35.747Z,1.80
2023-01-19T21:09:03.331Z,1.70
2023-01-19T21:11:30.358Z,1.60
2023-01-19T21:13:57.316Z,1.60
2023-01-19T21:16:26.641Z,1.70
2023-01-19T21:18:53.866Z,1.60
2023-01-19T21:21:30.384Z,1.50
2023-01-19T21:23:59.792Z,1.50
2023-01-19T21:26:26.846Z,1.60
2023-01-19T21:28:53.818Z,1.60
2023-01-19T21:31:23.104Z,1.60
2023-01-19T21:33:53.468Z,1.70
2023-01-19T21:36:22.566Z,1.60
2023-01-19T21:38:51.473Z,1.60
2023-01-19T21:41:18.952Z,1.60
2023-01-19T21:43:46.306Z,1.60
2023-01-19T21:46:21.739Z,1.60
2023-01-19T21:48:48.971Z,1.60
2023-01-19T21:51:16.194Z,1.70
2023-01-19T21:53:43.269Z,1.60
2023-01-19T21:56:11.356Z,1.60
2023-01-19T21:58:38.839Z,1.50
2023-01-19T22:01:13.658Z,1.40
2023-01-19T22:03:41.617Z,1.40
2023-01-19T22:06:10.965Z,1.60
2023-01-19T22:08:38.023Z,1.50
2023-01-19T22:11:06.438Z,1.60
2023-01-19T22:13:34.809Z,1.60
2023-01-19T22:16:03.755Z,1.70
2023-01-19T22:18:30.827Z,1.70
2023-01-19T22:21:12.714Z,1.70
2023-01-19T22:23:39.998Z,1.60
2023-01-19T22:26:08.040Z,1.70
2023-01-19T22:28:35.874Z,1.70
2023-01-19T22:31:14.653Z,1.60
2023-01-19T22:33:42.647Z,1.60
2023-01-19T22:36:15.686Z,1.60
2023-01-19T22:38:44.149Z,1.70
2023-01-19T22:41:17.810Z,1.50
2023-01-19T22:43:45.023Z,1.60
2023-01-19T22:46:12.311Z,1.60
2023-01-19T22:48:40.528Z,1.50
2023-01-19T22:51:07.692Z,1.60
2023-01-19T22:53:34.636Z,1.70
2023-01-19T22:56:08.973Z,1.50
2023-01-19T22:58:35.817Z,1.60
2023-01-19T23:01:07.566Z,1.60
2023-01-19T23:03:35.116Z,1.60
2023-01-19T23:06:11.475Z,1.60
2023-01-19T23:08:39.178Z,1.70
2023-01-19T23:11:07.887Z,1.70
2023-01-19T23:13:34.931Z,1.70
2023-01-19T23:16:02.732Z,1.80
2023-01-19T23:18:30.268Z,1.70
2023-01-19T23:21:15.651Z,1.70
2023-01-19T23:23:43.661Z,1.80
2023-01-19T23:26:16.171Z,1.70
2023-01-19T23:28:43.516Z,1.60
2023-01-19T23:31:19.048Z,1.70
2023-01-19T23:33:45.965Z,1.60
2023-01-19T23:36:14.125Z,1.70
2023-01-19T23:38:42.074Z,1.80
2023-01-19T23:41:09.054Z,1.80
2023-01-19T23:43:35.909Z,1.80
2023-01-19T23:46:08.190Z,1.90
2023-01-19T23:48:36.065Z,1.80
2023-01-19T23:51:11.401Z,1.90
2023-01-19T23:53:38.561Z,1.80
2023-01-19T23:56:15.812Z,1.90
2023-01-19T23:58:42.636Z,1.80
